sensor_id;sensor_type;location;lat;lon;timestamp;P1;durP1;ratioP1;P2;durP2;ratioP2
18249;SDS011;27980;52.126;5.572;2023-10-31T00:00:53;4.72;;;1.50;;
18249;SDS011;27980;52.126;5.572;2023-10-31T00:03:19;2.50;;;1.33;;
18249;SDS011;27980;52.126;5.572;2023-10-31T00:05:47;8.25;;;2.28;;
18249;SDS011;27980;52.126;5.572;2023-10-31T00:08:14;4.68;;;1.30;;
18249;SDS011;27980;52.126;5.572;2023-10-31T00:10:40;2.17;;;1.40;;
18249;SDS011;27980;52.126;5.572;2023-10-31T00:13:09;3.58;;;1.50;;
18249;SDS011;27980;52.126;5.572;2023-10-31T00:15:36;9.18;;;1.73;;
18249;SDS011;27980;52.126;5.572;2023-10-31T00:18:02;1.17;;;0.80;;
18249;SDS011;27980;52.126;5.572;2023-10-31T00:20:29;1.40;;;0.93;;
18249;SDS011;27980;52.126;5.572;2023-10-31T00:22:58;1.55;;;0.95;;
18249;SDS011;27980;52.126;5.572;2023-10-31T00:25:25;4.25;;;1.00;;
18249;SDS011;27980;52.126;5.572;2023-10-31T00:27:51;3.97;;;0.82;;
18249;SDS011;27980;52.126;5.572;2023-10-31T00:30:18;4.68;;;0.95;;
18249;SDS011;27980;52.126;5.572;2023-10-31T00:32:44;3.20;;;1.10;;
18249;SDS011;27980;52.126;5.572;2023-10-31T00:35:11;2.45;;;0.88;;
18249;SDS011;27980;52.126;5.572;2023-10-31T00:37:39;2.15;;;0.95;;
18249;SDS011;27980;52.126;5.572;2023-10-31T00:40:08;1.52;;;0.85;;
18249;SDS011;27980;52.126;5.572;2023-10-31T00:42:36;3.70;;;0.95;;
18249;SDS011;27980;52.126;5.572;2023-10-31T00:45:02;0.95;;;0.80;;
18249;SDS011;27980;52.126;5.572;2023-10-31T00:47:29;3.92;;;1.40;;
18249;SDS011;27980;52.126;5.572;2023-10-31T00:49:55;2.83;;;1.50;;
18249;SDS011;27980;52.126;5.572;2023-10-31T00:52:22;4.25;;;2.10;;
18249;SDS011;27980;52.126;5.572;2023-10-31T00:54:48;6.18;;;2.53;;
18249;SDS011;27980;52.126;5.572;2023-10-31T00:57:16;7.50;;;3.28;;
18249;SDS011;27980;52.126;5.572;2023-10-31T00:59:43;4.97;;;3.05;;
18249;SDS011;27980;52.126;5.572;2023-10-31T01:02:10;9.48;;;3.50;;
18249;SDS011;27980;52.126;5.572;2023-10-31T01:04:36;5.60;;;3.55;;
18249;SDS011;27980;52.126;5.572;2023-10-31T01:07:03;8.10;;;3.95;;
18249;SDS011;27980;52.126;5.572;2023-10-31T01:09:29;8.85;;;4.07;;
18249;SDS011;27980;52.126;5.572;2023-10-31T01:11:56;9.18;;;4.63;;
18249;SDS011;27980;52.126;5.572;2023-10-31T01:14:24;9.38;;;5.22;;
18249;SDS011;27980;52.126;5.572;2023-10-31T01:16:50;10.07;;;5.57;;
18249;SDS011;27980;52.126;5.572;2023-10-31T01:19:16;10.55;;;6.03;;
18249;SDS011;27980;52.126;5.572;2023-10-31T01:21:43;12.18;;;6.45;;
18249;SDS011;27980;52.126;5.572;2023-10-31T01:24:09;10.70;;;6.50;;
18249;SDS011;27980;52.126;5.572;2023-10-31T01:26:36;14.05;;;6.47;;
18249;SDS011;27980;52.126;5.572;2023-10-31T01:29:02;15.65;;;7.60;;
18249;SDS011;27980;52.126;5.572;2023-10-31T01:31:30;10.45;;;5.80;;
18249;SDS011;27980;52.126;5.572;2023-10-31T01:34:02;14.02;;;6.90;;
18249;SDS011;27980;52.126;5.572;2023-10-31T01:36:28;14.32;;;6.25;;
18249;SDS011;27980;52.126;5.572;2023-10-31T01:38:55;15.00;;;6.65;;
18249;SDS011;27980;52.126;5.572;2023-10-31T01:41:21;11.57;;;6.30;;
18249;SDS011;27980;52.126;5.572;2023-10-31T01:43:47;11.18;;;6.72;;
18249;SDS011;27980;52.126;5.572;2023-10-31T01:46:14;11.02;;;6.55;;
18249;SDS011;27980;52.126;5.572;2023-10-31T01:48:42;12.85;;;6.90;;
18249;SDS011;27980;52.126;5.572;2023-10-31T01:51:08;13.05;;;7.20;;
18249;SDS011;27980;52.126;5.572;2023-10-31T01:53:35;12.35;;;6.20;;
18249;SDS011;27980;52.126;5.572;2023-10-31T01:56:02;11.05;;;6.03;;
18249;SDS011;27980;52.126;5.572;2023-10-31T01:58:30;11.48;;;6.53;;
18249;SDS011;27980;52.126;5.572;2023-10-31T02:00:57;13.75;;;5.65;;
18249;SDS011;27980;52.126;5.572;2023-10-31T02:03:23;8.82;;;4.43;;
18249;SDS011;27980;52.126;5.572;2023-10-31T02:05:52;12.07;;;5.10;;
18249;SDS011;27980;52.126;5.572;2023-10-31T02:08:18;13.13;;;4.93;;
18249;SDS011;27980;52.126;5.572;2023-10-31T02:10:46;9.05;;;4.85;;
18249;SDS011;27980;52.126;5.572;2023-10-31T02:13:13;10.68;;;5.53;;
18249;SDS011;27980;52.126;5.572;2023-10-31T02:15:39;12.18;;;6.28;;
18249;SDS011;27980;52.126;5.572;2023-10-31T02:18:06;10.88;;;5.82;;
18249;SDS011;27980;52.126;5.572;2023-10-31T02:20:33;14.05;;;6.53;;
18249;SDS011;27980;52.126;5.572;2023-10-31T02:23:01;15.52;;;8.00;;
18249;SDS011;27980;52.126;5.572;2023-10-31T02:25:27;13.05;;;7.10;;
18249;SDS011;27980;52.126;5.572;2023-10-31T02:27:54;15.70;;;7.18;;
18249;SDS011;27980;52.126;5.572;2023-10-31T02:30:22;12.60;;;7.82;;
18249;SDS011;27980;52.126;5.572;2023-10-31T02:32:48;16.55;;;8.30;;
18249;SDS011;27980;52.126;5.572;2023-10-31T02:35:15;14.77;;;8.05;;
18249;SDS011;27980;52.126;5.572;2023-10-31T02:37:42;16.50;;;8.57;;
18249;SDS011;27980;52.126;5.572;2023-10-31T02:40:11;16.05;;;7.38;;
18249;SDS011;27980;52.126;5.572;2023-10-31T02:42:37;16.58;;;8.55;;
18249;SDS011;27980;52.126;5.572;2023-10-31T02:45:04;15.13;;;9.20;;
18249;SDS011;27980;52.126;5.572;2023-10-31T02:47:30;20.60;;;9.25;;
18249;SDS011;27980;52.126;5.572;2023-10-31T02:49:57;18.58;;;8.88;;
18249;SDS011;27980;52.126;5.572;2023-10-31T02:52:23;19.88;;;9.93;;
18249;SDS011;27980;52.126;5.572;2023-10-31T02:54:50;15.88;;;9.63;;
18249;SDS011;27980;52.126;5.572;2023-10-31T02:57:19;18.50;;;9.93;;
18249;SDS011;27980;52.126;5.572;2023-10-31T02:59:45;17.65;;;10.45;;
18249;SDS011;27980;52.126;5.572;2023-10-31T03:02:12;17.17;;;9.25;;
18249;SDS011;27980;52.126;5.572;2023-10-31T03:04:38;22.60;;;9.90;;
18249;SDS011;27980;52.126;5.572;2023-10-31T03:07:04;14.35;;;8.13;;
18249;SDS011;27980;52.126;5.572;2023-10-31T03:09:31;16.67;;;8.70;;
18249;SDS011;27980;52.126;5.572;2023-10-31T03:11:57;14.13;;;8.30;;
18249;SDS011;27980;52.126;5.572;2023-10-31T03:14:25;14.20;;;7.55;;
18249;SDS011;27980;52.126;5.572;2023-10-31T03:16:53;14.75;;;7.95;;
18249;SDS011;27980;52.126;5.572;2023-10-31T03:19:20;10.13;;;6.45;;
18249;SDS011;27980;52.126;5.572;2023-10-31T03:21:46;11.20;;;6.85;;
18249;SDS011;27980;52.126;5.572;2023-10-31T03:24:12;9.85;;;6.35;;
18249;SDS011;27980;52.126;5.572;2023-10-31T03:26:39;10.50;;;5.43;;
18249;SDS011;27980;52.126;5.572;2023-10-31T03:29:07;9.07;;;5.20;;
18249;SDS011;27980;52.126;5.572;2023-10-31T03:31:34;11.82;;;5.20;;
18249;SDS011;27980;52.126;5.572;2023-10-31T03:34:01;9.57;;;5.57;;
18249;SDS011;27980;52.126;5.572;2023-10-31T03:36:27;10.85;;;4.65;;
18249;SDS011;27980;52.126;5.572;2023-10-31T03:38:54;8.38;;;4.85;;
18249;SDS011;27980;52.126;5.572;2023-10-31T03:41:20;8.00;;;4.45;;
18249;SDS011;27980;52.126;5.572;2023-10-31T03:43:47;12.10;;;5.03;;
18249;SDS011;27980;52.126;5.572;2023-10-31T03:46:14;6.97;;;4.18;;
18249;SDS011;27980;52.126;5.572;2023-10-31T03:48:42;11.23;;;5.10;;
18249;SDS011;27980;52.126;5.572;2023-10-31T03:51:09;8.13;;;5.13;;
18249;SDS011;27980;52.126;5.572;2023-10-31T03:53:35;6.72;;;4.43;;
18249;SDS011;27980;52.126;5.572;2023-10-31T03:56:02;8.13;;;4.38;;
18249;SDS011;27980;52.126;5.572;2023-10-31T03:58:28;8.52;;;4.15;;
18249;SDS011;27980;52.126;5.572;2023-10-31T04:00:55;6.43;;;4.07;;
18249;SDS011;27980;52.126;5.572;2023-10-31T04:03:21;7.43;;;3.75;;
18249;SDS011;27980;52.126;5.572;2023-10-31T04:05:49;6.60;;;3.20;;
18249;SDS011;27980;52.126;5.572;2023-10-31T04:08:15;6.10;;;3.45;;
18249;SDS011;27980;52.126;5.572;2023-10-31T04:10:41;3.42;;;2.35;;
18249;SDS011;27980;52.126;5.572;2023-10-31T04:13:08;3.45;;;2.35;;
18249;SDS011;27980;52.126;5.572;2023-10-31T04:15:34;4.75;;;2.03;;
18249;SDS011;27980;52.126;5.572;2023-10-31T04:18:01;3.53;;;1.77;;
18249;SDS011;27980;52.126;5.572;2023-10-31T04:20:28;3.50;;;1.85;;
18249;SDS011;27980;52.126;5.572;2023-10-31T04:22:56;5.70;;;1.70;;
18249;SDS011;27980;52.126;5.572;2023-10-31T04:25:24;2.53;;;1.15;;
18249;SDS011;27980;52.126;5.572;2023-10-31T04:27:52;2.13;;;1.45;;
18249;SDS011;27980;52.126;5.572;2023-10-31T04:30:18;3.50;;;1.20;;
18249;SDS011;27980;52.126;5.572;2023-10-31T04:32:45;1.70;;;1.13;;
18249;SDS011;27980;52.126;5.572;2023-10-31T04:35:11;1.90;;;0.93;;
18249;SDS011;27980;52.126;5.572;2023-10-31T04:37:38;1.15;;;1.02;;
18249;SDS011;27980;52.126;5.572;2023-10-31T04:40:07;1.60;;;1.00;;
18249;SDS011;27980;52.126;5.572;2023-10-31T04:42:33;0.95;;;0.80;;
18249;SDS011;27980;52.126;5.572;2023-10-31T04:45:00;3.33;;;1.10;;
18249;SDS011;27980;52.126;5.572;2023-10-31T04:47:26;2.85;;;0.80;;
18249;SDS011;27980;52.126;5.572;2023-10-31T04:49:53;1.48;;;0.98;;
18249;SDS011;27980;52.126;5.572;2023-10-31T04:52:19;2.42;;;1.25;;
18249;SDS011;27980;52.126;5.572;2023-10-31T04:54:47;1.75;;;1.13;;
18249;SDS011;27980;52.126;5.572;2023-10-31T04:57:15;1.25;;;0.93;;
18249;SDS011;27980;52.126;5.572;2023-10-31T04:59:42;3.60;;;1.92;;
18249;SDS011;27980;52.126;5.572;2023-10-31T05:02:08;2.90;;;1.52;;
18249;SDS011;27980;52.126;5.572;2023-10-31T05:04:37;3.03;;;1.45;;
18249;SDS011;27980;52.126;5.572;2023-10-31T05:07:04;3.58;;;1.75;;
18249;SDS011;27980;52.126;5.572;2023-10-31T05:09:30;2.55;;;1.55;;
18249;SDS011;27980;52.126;5.572;2023-10-31T05:11:56;6.70;;;1.90;;
18249;SDS011;27980;52.126;5.572;2023-10-31T05:14:24;5.72;;;2.38;;
18249;SDS011;27980;52.126;5.572;2023-10-31T05:16:50;3.67;;;1.85;;
18249;SDS011;27980;52.126;5.572;2023-10-31T05:19:17;3.75;;;1.90;;
18249;SDS011;27980;52.126;5.572;2023-10-31T05:21:43;6.10;;;1.95;;
18249;SDS011;27980;52.126;5.572;2023-10-31T05:24:10;2.88;;;2.13;;
18249;SDS011;27980;52.126;5.572;2023-10-31T05:26:37;4.03;;;2.22;;
18249;SDS011;27980;52.126;5.572;2023-10-31T05:29:05;5.03;;;2.15;;
18249;SDS011;27980;52.126;5.572;2023-10-31T05:31:33;5.82;;;2.13;;
18249;SDS011;27980;52.126;5.572;2023-10-31T05:34:00;4.43;;;2.33;;
18249;SDS011;27980;52.126;5.572;2023-10-31T05:36:26;2.88;;;1.83;;
18249;SDS011;27980;52.126;5.572;2023-10-31T05:38:53;2.88;;;2.25;;
18249;SDS011;27980;52.126;5.572;2023-10-31T05:41:19;14.60;;;2.50;;
18249;SDS011;27980;52.126;5.572;2023-10-31T05:43:45;3.03;;;1.85;;
18249;SDS011;27980;52.126;5.572;2023-10-31T05:46:12;8.32;;;1.95;;
18249;SDS011;27980;52.126;5.572;2023-10-31T05:48:41;2.78;;;2.13;;
18249;SDS011;27980;52.126;5.572;2023-10-31T05:51:10;3.40;;;2.38;;
18249;SDS011;27980;52.126;5.572;2023-10-31T05:53:38;2.90;;;1.92;;
18249;SDS011;27980;52.126;5.572;2023-10-31T05:56:05;3.55;;;2.72;;
18249;SDS011;27980;52.126;5.572;2023-10-31T05:58:33;3.58;;;2.30;;
18249;SDS011;27980;52.126;5.572;2023-10-31T06:01:01;6.50;;;2.72;;
18249;SDS011;27980;52.126;5.572;2023-10-31T06:03:27;5.68;;;3.17;;
18249;SDS011;27980;52.126;5.572;2023-10-31T06:05:55;8.35;;;4.22;;
18249;SDS011;27980;52.126;5.572;2023-10-31T06:08:21;8.13;;;4.25;;
18249;SDS011;27980;52.126;5.572;2023-10-31T06:10:49;10.23;;;4.97;;
18249;SDS011;27980;52.126;5.572;2023-10-31T06:13:15;12.18;;;5.28;;
18249;SDS011;27980;52.126;5.572;2023-10-31T06:15:42;7.88;;;5.30;;
18249;SDS011;27980;52.126;5.572;2023-10-31T06:18:10;12.05;;;5.45;;
18249;SDS011;27980;52.126;5.572;2023-10-31T06:20:39;7.75;;;5.13;;
18249;SDS011;27980;52.126;5.572;2023-10-31T06:23:09;10.18;;;5.68;;
18249;SDS011;27980;52.126;5.572;2023-10-31T06:25:35;5.78;;;4.35;;
18249;SDS011;27980;52.126;5.572;2023-10-31T06:28:02;8.48;;;4.82;;
18249;SDS011;27980;52.126;5.572;2023-10-31T06:30:28;12.52;;;5.82;;
18249;SDS011;27980;52.126;5.572;2023-10-31T06:32:55;7.93;;;5.35;;
18249;SDS011;27980;52.126;5.572;2023-10-31T06:35:20;11.00;;;5.88;;
18249;SDS011;27980;52.126;5.572;2023-10-31T06:37:46;6.63;;;4.75;;
18249;SDS011;27980;52.126;5.572;2023-10-31T06:40:17;8.68;;;5.68;;
18249;SDS011;27980;52.126;5.572;2023-10-31T06:42:43;8.43;;;4.97;;
18249;SDS011;27980;52.126;5.572;2023-10-31T06:45:10;7.28;;;5.35;;
18249;SDS011;27980;52.126;5.572;2023-10-31T06:47:37;7.22;;;4.55;;
18249;SDS011;27980;52.126;5.572;2023-10-31T06:50:03;5.60;;;4.38;;
18249;SDS011;27980;52.126;5.572;2023-10-31T06:52:33;6.82;;;4.28;;
18249;SDS011;27980;52.126;5.572;2023-10-31T06:55:00;5.75;;;4.03;;
18249;SDS011;27980;52.126;5.572;2023-10-31T06:57:28;5.50;;;3.42;;
18249;SDS011;27980;52.126;5.572;2023-10-31T06:59:54;3.88;;;3.45;;
18249;SDS011;27980;52.126;5.572;2023-10-31T07:02:21;3.88;;;3.22;;
18249;SDS011;27980;52.126;5.572;2023-10-31T07:04:47;5.20;;;3.53;;
18249;SDS011;27980;52.126;5.572;2023-10-31T07:07:14;3.75;;;2.72;;
18249;SDS011;27980;52.126;5.572;2023-10-31T07:09:41;3.50;;;3.20;;
18249;SDS011;27980;52.126;5.572;2023-10-31T07:12:07;4.55;;;2.53;;
18249;SDS011;27980;52.126;5.572;2023-10-31T07:14:35;7.63;;;2.83;;
18249;SDS011;27980;52.126;5.572;2023-10-31T07:17:01;3.78;;;2.70;;
18249;SDS011;27980;52.126;5.572;2023-10-31T07:19:30;2.90;;;2.40;;
18249;SDS011;27980;52.126;5.572;2023-10-31T07:21:56;2.22;;;2.03;;
18249;SDS011;27980;52.126;5.572;2023-10-31T07:24:23;3.17;;;2.17;;
18249;SDS011;27980;52.126;5.572;2023-10-31T07:26:51;5.35;;;1.75;;
18249;SDS011;27980;52.126;5.572;2023-10-31T07:29:18;2.53;;;1.80;;
18249;SDS011;27980;52.126;5.572;2023-10-31T07:31:45;3.78;;;1.50;;
18249;SDS011;27980;52.126;5.572;2023-10-31T07:34:12;1.55;;;1.40;;
18249;SDS011;27980;52.126;5.572;2023-10-31T07:36:41;2.67;;;1.80;;
18249;SDS011;27980;52.126;5.572;2023-10-31T07:39:07;2.85;;;1.90;;
18249;SDS011;27980;52.126;5.572;2023-10-31T07:41:35;5.43;;;2.05;;
18249;SDS011;27980;52.126;5.572;2023-10-31T07:44:01;7.20;;;2.35;;
18249;SDS011;27980;52.126;5.572;2023-10-31T07:46:27;5.10;;;2.35;;
18249;SDS011;27980;52.126;5.572;2023-10-31T07:48:55;4.03;;;1.95;;
18249;SDS011;27980;52.126;5.572;2023-10-31T07:51:22;5.20;;;2.13;;
18249;SDS011;27980;52.126;5.572;2023-10-31T07:53:48;4.75;;;2.22;;
18249;SDS011;27980;52.126;5.572;2023-10-31T07:56:15;2.33;;;2.10;;
18249;SDS011;27980;52.126;5.572;2023-10-31T07:58:41;3.90;;;2.30;;
18249;SDS011;27980;52.126;5.572;2023-10-31T08:01:07;2.70;;;2.25;;
18249;SDS011;27980;52.126;5.572;2023-10-31T08:03:35;3.90;;;2.50;;
18249;SDS011;27980;52.126;5.572;2023-10-31T08:06:05;5.20;;;2.75;;
18249;SDS011;27980;52.126;5.572;2023-10-31T08:08:32;5.53;;;2.60;;
18249;SDS011;27980;52.126;5.572;2023-10-31T08:11:00;4.22;;;2.33;;
18249;SDS011;27980;52.126;5.572;2023-10-31T08:13:26;4.72;;;2.65;;
18249;SDS011;27980;52.126;5.572;2023-10-31T08:15:52;5.68;;;3.10;;
18249;SDS011;27980;52.126;5.572;2023-10-31T08:18:21;3.10;;;2.45;;
18249;SDS011;27980;52.126;5.572;2023-10-31T08:20:49;3.72;;;2.25;;
18249;SDS011;27980;52.126;5.572;2023-10-31T08:23:17;4.15;;;2.53;;
18249;SDS011;27980;52.126;5.572;2023-10-31T08:25:43;4.47;;;2.53;;
18249;SDS011;27980;52.126;5.572;2023-10-31T08:28:10;2.92;;;2.00;;
18249;SDS011;27980;52.126;5.572;2023-10-31T08:30:39;5.97;;;2.33;;
18249;SDS011;27980;52.126;5.572;2023-10-31T08:33:05;3.75;;;2.20;;
18249;SDS011;27980;52.126;5.572;2023-10-31T08:35:32;5.45;;;2.67;;
18249;SDS011;27980;52.126;5.572;2023-10-31T08:37:59;4.32;;;2.40;;
18249;SDS011;27980;52.126;5.572;2023-10-31T08:40:26;6.22;;;2.20;;
18249;SDS011;27980;52.126;5.572;2023-10-31T08:42:53;2.03;;;1.85;;
18249;SDS011;27980;52.126;5.572;2023-10-31T08:45:20;2.53;;;1.60;;
18249;SDS011;27980;52.126;5.572;2023-10-31T08:47:47;2.55;;;1.83;;
18249;SDS011;27980;52.126;5.572;2023-10-31T08:50:13;3.42;;;2.00;;
18249;SDS011;27980;52.126;5.572;2023-10-31T08:52:40;3.20;;;1.92;;
18249;SDS011;27980;52.126;5.572;2023-10-31T08:55:10;1.80;;;1.60;;
18249;SDS011;27980;52.126;5.572;2023-10-31T08:57:38;3.53;;;1.63;;
18249;SDS011;27980;52.126;5.572;2023-10-31T09:00:06;4.25;;;1.23;;
18249;SDS011;27980;52.126;5.572;2023-10-31T09:02:34;1.60;;;1.20;;
18249;SDS011;27980;52.126;5.572;2023-10-31T09:05:00;1.98;;;1.40;;
18249;SDS011;27980;52.126;5.572;2023-10-31T09:07:27;4.18;;;1.48;;
18249;SDS011;27980;52.126;5.572;2023-10-31T09:09:53;1.65;;;1.30;;
18249;SDS011;27980;52.126;5.572;2023-10-31T09:12:21;2.92;;;1.42;;
18249;SDS011;27980;52.126;5.572;2023-10-31T09:14:48;4.20;;;2.10;;
18249;SDS011;27980;52.126;5.572;2023-10-31T09:17:15;3.20;;;1.40;;
18249;SDS011;27980;52.126;5.572;2023-10-31T09:19:41;2.80;;;1.90;;
18249;SDS011;27980;52.126;5.572;2023-10-31T09:22:08;2.33;;;1.85;;
18249;SDS011;27980;52.126;5.572;2023-10-31T09:24:35;4.20;;;1.92;;
18249;SDS011;27980;52.126;5.572;2023-10-31T09:27:02;5.47;;;1.77;;
18249;SDS011;27980;52.126;5.572;2023-10-31T09:29:28;4.78;;;2.25;;
18249;SDS011;27980;52.126;5.572;2023-10-31T09:31:56;2.28;;;1.77;;
18249;SDS011;27980;52.126;5.572;2023-10-31T09:34:24;3.92;;;1.85;;
18249;SDS011;27980;52.126;5.572;2023-10-31T09:36:51;2.95;;;2.17;;
18249;SDS011;27980;52.126;5.572;2023-10-31T09:39:17;3.03;;;1.98;;
18249;SDS011;27980;52.126;5.572;2023-10-31T09:41:44;6.10;;;2.30;;
18249;SDS011;27980;52.126;5.572;2023-10-31T09:44:10;5.20;;;3.03;;
18249;SDS011;27980;52.126;5.572;2023-10-31T09:46:36;5.50;;;2.90;;
18249;SDS011;27980;52.126;5.572;2023-10-31T09:49:05;4.07;;;2.45;;
18249;SDS011;27980;52.126;5.572;2023-10-31T09:51:32;11.48;;;2.65;;
18249;SDS011;27980;52.126;5.572;2023-10-31T09:54:00;3.35;;;1.80;;
18249;SDS011;27980;52.126;5.572;2023-10-31T09:56:28;4.60;;;1.88;;
18249;SDS011;27980;52.126;5.572;2023-10-31T09:58:59;4.18;;;1.65;;
18249;SDS011;27980;52.126;5.572;2023-10-31T10:01:25;3.45;;;1.50;;
18249;SDS011;27980;52.126;5.572;2023-10-31T10:03:52;3.97;;;1.75;;
18249;SDS011;27980;52.126;5.572;2023-10-31T10:06:21;2.03;;;1.63;;
18249;SDS011;27980;52.126;5.572;2023-10-31T10:08:48;5.30;;;1.70;;
18249;SDS011;27980;52.126;5.572;2023-10-31T10:11:15;6.07;;;2.03;;
18249;SDS011;27980;52.126;5.572;2023-10-31T10:13:41;3.40;;;2.38;;
18249;SDS011;27980;52.126;5.572;2023-10-31T10:16:08;6.57;;;2.20;;
18249;SDS011;27980;52.126;5.572;2023-10-31T10:18:37;4.20;;;2.13;;
18249;SDS011;27980;52.126;5.572;2023-10-31T10:21:05;3.45;;;2.08;;
18249;SDS011;27980;52.126;5.572;2023-10-31T10:23:38;2.10;;;1.60;;
18249;SDS011;27980;52.126;5.572;2023-10-31T10:26:05;2.58;;;1.45;;
18249;SDS011;27980;52.126;5.572;2023-10-31T10:28:31;2.45;;;1.90;;
18249;SDS011;27980;52.126;5.572;2023-10-31T10:30:58;5.55;;;1.98;;
18249;SDS011;27980;52.126;5.572;2023-10-31T10:33:25;1.88;;;1.45;;
18249;SDS011;27980;52.126;5.572;2023-10-31T10:35:52;3.05;;;1.55;;
18249;SDS011;27980;52.126;5.572;2023-10-31T10:38:21;3.08;;;1.80;;
18249;SDS011;27980;52.126;5.572;2023-10-31T10:40:49;1.58;;;1.25;;
18249;SDS011;27980;52.126;5.572;2023-10-31T10:43:18;2.35;;;1.20;;
18249;SDS011;27980;52.126;5.572;2023-10-31T10:45:46;2.45;;;1.30;;
18249;SDS011;27980;52.126;5.572;2023-10-31T10:48:15;3.13;;;1.45;;
18249;SDS011;27980;52.126;5.572;2023-10-31T10:50:42;2.58;;;1.20;;
18249;SDS011;27980;52.126;5.572;2023-10-31T10:53:13;1.98;;;1.10;;
18249;SDS011;27980;52.126;5.572;2023-10-31T10:55:44;3.72;;;1.88;;
18249;SDS011;27980;52.126;5.572;2023-10-31T10:58:18;2.13;;;1.30;;
18249;SDS011;27980;52.126;5.572;2023-10-31T11:00:46;3.63;;;1.33;;
18249;SDS011;27980;52.126;5.572;2023-10-31T11:03:13;5.68;;;1.50;;
18249;SDS011;27980;52.126;5.572;2023-10-31T11:05:40;3.10;;;1.17;;
18249;SDS011;27980;52.126;5.572;2023-10-31T11:08:07;2.60;;;1.30;;
18249;SDS011;27980;52.126;5.572;2023-10-31T11:10:34;4.00;;;1.50;;
18249;SDS011;27980;52.126;5.572;2023-10-31T11:13:00;3.85;;;1.50;;
18249;SDS011;27980;52.126;5.572;2023-10-31T11:15:28;4.80;;;1.90;;
18249;SDS011;27980;52.126;5.572;2023-10-31T11:17:55;2.58;;;2.00;;
18249;SDS011;27980;52.126;5.572;2023-10-31T11:20:22;1.77;;;1.67;;
18249;SDS011;27980;52.126;5.572;2023-10-31T11:22:49;2.75;;;1.80;;
18249;SDS011;27980;52.126;5.572;2023-10-31T11:25:22;3.72;;;2.05;;
18249;SDS011;27980;52.126;5.572;2023-10-31T11:27:49;5.63;;;2.20;;
18249;SDS011;27980;52.126;5.572;2023-10-31T11:30:21;2.90;;;1.60;;
18249;SDS011;27980;52.126;5.572;2023-10-31T11:32:49;2.88;;;2.00;;
18249;SDS011;27980;52.126;5.572;2023-10-31T11:35:17;1.67;;;1.45;;
18249;SDS011;27980;52.126;5.572;2023-10-31T11:37:46;3.95;;;1.98;;
18249;SDS011;27980;52.126;5.572;2023-10-31T11:40:17;4.03;;;1.40;;
18249;SDS011;27980;52.126;5.572;2023-10-31T11:42:43;2.03;;;1.40;;
18249;SDS011;27980;52.126;5.572;2023-10-31T11:45:12;2.47;;;1.40;;
18249;SDS011;27980;52.126;5.572;2023-10-31T11:47:45;2.60;;;1.50;;
18249;SDS011;27980;52.126;5.572;2023-10-31T11:50:13;3.55;;;1.65;;
18249;SDS011;27980;52.126;5.572;2023-10-31T11:52:40;4.60;;;1.80;;
18249;SDS011;27980;52.126;5.572;2023-10-31T11:55:08;2.83;;;1.77;;
18249;SDS011;27980;52.126;5.572;2023-10-31T11:57:35;6.07;;;2.10;;
18249;SDS011;27980;52.126;5.572;2023-10-31T12:00:04;4.15;;;2.20;;
18249;SDS011;27980;52.126;5.572;2023-10-31T12:02:30;3.30;;;2.25;;
18249;SDS011;27980;52.126;5.572;2023-10-31T12:05:07;6.72;;;2.13;;
18249;SDS011;27980;52.126;5.572;2023-10-31T12:07:42;4.47;;;2.72;;
18249;SDS011;27980;52.126;5.572;2023-10-31T12:10:09;4.60;;;3.13;;
18249;SDS011;27980;52.126;5.572;2023-10-31T12:12:35;4.97;;;3.22;;
18249;SDS011;27980;52.126;5.572;2023-10-31T12:15:06;4.55;;;3.78;;
18249;SDS011;27980;52.126;5.572;2023-10-31T12:17:33;6.38;;;4.70;;
18249;SDS011;27980;52.126;5.572;2023-10-31T12:20:02;6.57;;;4.90;;
18249;SDS011;27980;52.126;5.572;2023-10-31T12:22:29;10.80;;;5.18;;
18249;SDS011;27980;52.126;5.572;2023-10-31T12:25:01;9.82;;;5.93;;
18249;SDS011;27980;52.126;5.572;2023-10-31T12:27:41;7.55;;;6.07;;
18249;SDS011;27980;52.126;5.572;2023-10-31T12:30:08;8.15;;;6.50;;
18249;SDS011;27980;52.126;5.572;2023-10-31T12:32:35;10.48;;;7.13;;
18249;SDS011;27980;52.126;5.572;2023-10-31T12:35:02;12.05;;;8.85;;
18249;SDS011;27980;52.126;5.572;2023-10-31T12:37:29;12.88;;;9.50;;
18249;SDS011;27980;52.126;5.572;2023-10-31T12:39:55;13.23;;;9.38;;
18249;SDS011;27980;52.126;5.572;2023-10-31T12:42:23;13.98;;;8.95;;
18249;SDS011;27980;52.126;5.572;2023-10-31T12:44:54;13.00;;;8.95;;
18249;SDS011;27980;52.126;5.572;2023-10-31T12:47:21;13.73;;;9.32;;
18249;SDS011;27980;52.126;5.572;2023-10-31T12:49:47;15.10;;;10.25;;
18249;SDS011;27980;52.126;5.572;2023-10-31T12:52:14;16.95;;;9.70;;
18249;SDS011;27980;52.126;5.572;2023-10-31T12:54:40;16.25;;;10.02;;
18249;SDS011;27980;52.126;5.572;2023-10-31T12:57:07;14.38;;;10.07;;
18249;SDS011;27980;52.126;5.572;2023-10-31T12:59:35;18.02;;;10.65;;
18249;SDS011;27980;52.126;5.572;2023-10-31T13:02:03;17.27;;;9.93;;
18249;SDS011;27980;52.126;5.572;2023-10-31T13:04:30;18.10;;;10.32;;
18249;SDS011;27980;52.126;5.572;2023-10-31T13:06:57;18.48;;;9.63;;
18249;SDS011;27980;52.126;5.572;2023-10-31T13:09:27;15.60;;;9.70;;
18249;SDS011;27980;52.126;5.572;2023-10-31T13:11:56;17.33;;;9.13;;
18249;SDS011;27980;52.126;5.572;2023-10-31T13:14:23;16.02;;;8.95;;
18249;SDS011;27980;52.126;5.572;2023-10-31T13:16:50;14.82;;;8.57;;
18249;SDS011;27980;52.126;5.572;2023-10-31T13:19:17;16.30;;;8.88;;
18249;SDS011;27980;52.126;5.572;2023-10-31T13:21:43;14.15;;;8.32;;
18249;SDS011;27980;52.126;5.572;2023-10-31T13:24:10;15.52;;;9.07;;
18249;SDS011;27980;52.126;5.572;2023-10-31T13:26:37;14.70;;;8.38;;
18249;SDS011;27980;52.126;5.572;2023-10-31T13:29:05;14.10;;;9.20;;
18249;SDS011;27980;52.126;5.572;2023-10-31T13:31:32;19.70;;;9.27;;
18249;SDS011;27980;52.126;5.572;2023-10-31T13:34:00;14.75;;;8.30;;
18249;SDS011;27980;52.126;5.572;2023-10-31T13:36:28;19.90;;;8.93;;
18249;SDS011;27980;52.126;5.572;2023-10-31T13:38:55;17.73;;;8.45;;
18249;SDS011;27980;52.126;5.572;2023-10-31T13:41:21;14.30;;;9.18;;
18249;SDS011;27980;52.126;5.572;2023-10-31T13:43:48;16.88;;;8.98;;
18249;SDS011;27980;52.126;5.572;2023-10-31T13:46:14;15.95;;;9.18;;
18249;SDS011;27980;52.126;5.572;2023-10-31T13:48:40;16.48;;;9.18;;
18249;SDS011;27980;52.126;5.572;2023-10-31T13:51:08;16.17;;;8.95;;
18249;SDS011;27980;52.126;5.572;2023-10-31T13:53:35;15.73;;;9.18;;
18249;SDS011;27980;52.126;5.572;2023-10-31T13:56:02;16.58;;;8.38;;
18249;SDS011;27980;52.126;5.572;2023-10-31T13:58:28;14.95;;;8.45;;
18249;SDS011;27980;52.126;5.572;2023-10-31T14:00:54;15.20;;;8.15;;
18249;SDS011;27980;52.126;5.572;2023-10-31T14:03:21;14.18;;;8.85;;
18249;SDS011;27980;52.126;5.572;2023-10-31T14:05:47;14.20;;;8.82;;
18249;SDS011;27980;52.126;5.572;2023-10-31T14:08:15;14.90;;;8.15;;
18249;SDS011;27980;52.126;5.572;2023-10-31T14:10:42;11.77;;;7.45;;
18249;SDS011;27980;52.126;5.572;2023-10-31T14:13:10;13.55;;;8.00;;
18249;SDS011;27980;52.126;5.572;2023-10-31T14:15:37;15.15;;;9.30;;
18249;SDS011;27980;52.126;5.572;2023-10-31T14:18:03;16.35;;;9.20;;
18249;SDS011;27980;52.126;5.572;2023-10-31T14:20:30;15.00;;;9.00;;
18249;SDS011;27980;52.126;5.572;2023-10-31T14:22:56;16.77;;;9.68;;
18249;SDS011;27980;52.126;5.572;2023-10-31T14:25:25;15.63;;;8.85;;
18249;SDS011;27980;52.126;5.572;2023-10-31T14:27:51;16.23;;;9.30;;
18249;SDS011;27980;52.126;5.572;2023-10-31T14:30:17;16.58;;;9.73;;
18249;SDS011;27980;52.126;5.572;2023-10-31T14:32:44;15.57;;;8.68;;
18249;SDS011;27980;52.126;5.572;2023-10-31T14:35:10;17.25;;;9.25;;
18249;SDS011;27980;52.126;5.572;2023-10-31T14:37:36;17.08;;;10.32;;
18249;SDS011;27980;52.126;5.572;2023-10-31T14:40:04;16.13;;;9.75;;
18249;SDS011;27980;52.126;5.572;2023-10-31T14:42:33;13.80;;;9.00;;